Time;durP1;ratioP1;P1;durP2;ratioP2;P2;SDS_P1;SDS_P2;PMS_P1;PMS_P2;Temp;Humidity;BMP_temperature;BMP_pressure;BME280_temperature;BME280_humidity;BME280_pressure;Samples;Min_cycle;Max_cycle;Signal;HPM_P1;HPM_P2
2022/07/05 00:01:04;;;;;;;15.82;14.15;;;;;;;;;;5115677;28;20031;-73
2022/07/05 00:03:30;;;;;;;22.30;14.65;;;;;;;;;;5115555;28;20485;-73
2022/07/05 00:05:57;;;;;;;21.42;15.50;;;;;;;;;;5116021;28;20453;-73
2022/07/05 00:08:23;;;;;;;19.27;14.07;;;;;;;;;;5115397;28;20031;-72
2022/07/05 00:10:49;;;;;;;16.27;14.40;;;;;;;;;;5115581;28;20031;-73
2022/07/05 00:13:15;;;;;;;19.10;14.32;;;;;;;;;;5115489;28;20018;-73
2022/07/05 00:15:41;;;;;;;16.73;14.27;;;;;;;;;;5115486;28;20073;-72
2022/07/05 00:18:08;;;;;;;15.60;13.98;;;;;;;;;;5115309;28;20393;-72
2022/07/05 00:20:34;;;;;;;21.50;14.85;;;;;;;;;;5115194;28;20016;-73
2022/07/05 00:23:00;;;;;;;23.10;14.75;;;;;;;;;;5115227;28;20031;-73
2022/07/05 00:25:26;;;;;;;15.90;14.05;;;;;;;;;;5115111;28;20024;-72
2022/07/05 00:27:55;;;;;;;16.63;13.52;;;;;;;;;;5115246;28;20043;-72
2022/07/05 00:30:21;;;;;;;15.70;12.70;;;;;;;;;;5115024;28;20036;-73
2022/07/05 00:32:47;;;;;;;16.20;13.98;;;;;;;;;;5114825;28;20132;-73
2022/07/05 00:35:13;;;;;;;14.80;13.30;;;;;;;;;;5113354;28;20118;-73
2022/07/05 00:37:40;;;;;;;15.00;13.15;;;;;;;;;;5114999;28;20024;-73
2022/07/05 00:40:07;;;;;;;15.25;12.98;;;;;;;;;;5114938;28;20027;-73
2022/07/05 00:42:34;;;;;;;21.50;13.63;;;;;;;;;;5113189;28;20123;-73
2022/07/05 00:45:00;;;;;;;14.55;12.82;;;;;;;;;;5114733;28;20069;-72
2022/07/05 00:47:26;;;;;;;15.25;13.60;;;;;;;;;;5114818;28;20026;-73
2022/07/05 00:49:52;;;;;;;16.23;12.88;;;;;;;;;;5114662;28;20031;-73
2022/07/05 00:52:18;;;;;;;15.57;14.00;;;;;;;;;;5114835;28;20036;-73
2022/07/05 00:54:44;;;;;;;15.27;13.68;;;;;;;;;;5114560;28;20466;-73
2022/07/05 00:57:10;;;;;;;16.05;13.27;;;;;;;;;;5114337;28;20033;-73
2022/07/05 00:59:36;;;;;;;15.18;13.32;;;;;;;;;;5114534;28;20027;-73
2022/07/05 01:02:03;;;;;;;15.32;13.73;;;;;;;;;;5114605;28;20076;-73
2022/07/05 01:04:29;;;;;;;14.15;12.70;;;;;;;;;;5114470;28;20019;-73
2022/07/05 01:06:55;;;;;;;15.60;14.10;;;;;;;;;;5114618;28;20028;-73
2022/07/05 01:09:22;;;;;;;15.35;13.75;;;;;;;;;;5114411;28;20077;-73
2022/07/05 01:11:48;;;;;;;15.10;13.50;;;;;;;;;;5114201;28;20485;-73
2022/07/05 01:14:16;;;;;;;15.98;13.30;;;;;;;;;;5114212;28;20031;-72
2022/07/05 01:16:42;;;;;;;15.70;13.65;;;;;;;;;;5114311;28;20016;-73
2022/07/05 01:19:10;;;;;;;16.38;14.13;;;;;;;;;;5112664;28;20042;-72
2022/07/05 01:21:39;;;;;;;17.02;15.27;;;;;;;;;;5114099;28;20031;-72
2022/07/05 01:24:05;;;;;;;15.45;13.77;;;;;;;;;;5113937;28;20020;-73
2022/07/05 01:26:31;;;;;;;15.05;13.45;;;;;;;;;;5114034;28;20031;-73
2022/07/05 01:28:57;;;;;;;16.50;13.60;;;;;;;;;;5113876;28;20032;-72
2022/07/05 01:31:23;;;;;;;14.90;13.30;;;;;;;;;;5113639;28;20038;-73
2022/07/05 01:33:50;;;;;;;19.90;13.70;;;;;;;;;;5113740;28;20050;-72
2022/07/05 01:36:16;;;;;;;15.55;14.00;;;;;;;;;;5113924;28;20144;-73
2022/07/05 01:38:42;;;;;;;16.05;14.23;;;;;;;;;;5113798;28;20492;-73
2022/07/05 01:41:09;;;;;;;16.13;14.38;;;;;;;;;;5114130;28;20046;-72
2022/07/05 01:43:35;;;;;;;14.07;12.68;;;;;;;;;;5113805;28;20027;-72
2022/07/05 01:46:03;;;;;;;15.18;13.57;;;;;;;;;;5113863;28;20140;-72
2022/07/05 01:48:29;;;;;;;15.30;12.75;;;;;;;;;;5113826;28;20080;-73
2022/07/05 01:51:00;;;;;;;14.82;13.23;;;;;;;;;;5113755;28;20034;-72
2022/07/05 01:53:26;;;;;;;;;;;;;;;;;;5114075;28;20415;-73
2022/07/05 01:55:52;;;;;;;15.10;13.30;;;;;;;;;;5113700;28;19910;-73
2022/07/05 01:58:18;;;;;;;17.52;13.85;;;;;;;;;;5113657;28;20018;-72
2022/07/05 02:00:44;;;;;;;18.33;13.77;;;;;;;;;;5113587;28;20028;-73
2022/07/05 02:03:11;;;;;;;14.80;13.15;;;;;;;;;;5113703;28;20492;-72
2022/07/05 02:05:37;;;;;;;14.70;13.23;;;;;;;;;;5113595;28;20022;-72
2022/07/05 02:08:03;;;;;;;15.23;13.02;;;;;;;;;;5113648;28;20059;-72
2022/07/05 02:10:29;;;;;;;13.90;12.45;;;;;;;;;;5118105;28;20031;-72
2022/07/05 02:12:55;;;;;;;18.95;12.85;;;;;;;;;;5117875;28;20024;-72
2022/07/05 02:15:22;;;;;;;14.35;12.95;;;;;;;;;;5117607;28;20019;-72
2022/07/05 02:17:48;;;;;;;15.68;13.27;;;;;;;;;;5117686;28;20035;-72
2022/07/05 02:20:14;;;;;;;16.67;13.48;;;;;;;;;;5117786;28;20059;-73
2022/07/05 02:22:40;;;;;;;16.80;12.70;;;;;;;;;;5117661;28;20096;-73
2022/07/05 02:25:06;;;;;;;17.42;13.00;;;;;;;;;;5115903;28;20035;-73
2022/07/05 02:27:32;;;;;;;16.75;12.93;;;;;;;;;;5117699;28;20039;-73
2022/07/05 02:30:00;;;;;;;14.90;13.13;;;;;;;;;;5117288;28;20424;-73
2022/07/05 02:32:26;;;;;;;14.43;12.60;;;;;;;;;;5117359;28;20122;-73
2022/07/05 02:34:52;;;;;;;14.55;13.02;;;;;;;;;;5117277;28;20027;-72
2022/07/05 02:37:18;;;;;;;14.77;13.02;;;;;;;;;;5117252;28;20058;-72
2022/07/05 02:39:44;;;;;;;14.10;12.65;;;;;;;;;;5117260;28;20076;-72
2022/07/05 02:42:10;;;;;;;14.35;12.93;;;;;;;;;;5117396;28;20030;-73
2022/07/05 02:44:36;;;;;;;16.10;13.50;;;;;;;;;;5117228;28;20055;-72
2022/07/05 02:47:02;;;;;;;17.23;13.70;;;;;;;;;;5117208;28;20421;-73
2022/07/05 02:49:28;;;;;;;13.98;12.45;;;;;;;;;;5117038;28;20110;-72
2022/07/05 02:51:54;;;;;;;14.43;13.00;;;;;;;;;;5117239;28;20023;-73
2022/07/05 02:54:20;;;;;;;14.48;12.82;;;;;;;;;;5116979;28;20023;-75
2022/07/05 02:56:47;;;;;;;15.98;13.52;;;;;;;;;;5117156;28;20026;-73
2022/07/05 02:59:13;;;;;;;17.23;13.30;;;;;;;;;;5116925;28;20016;-73
2022/07/05 03:01:39;;;;;;;15.20;13.57;;;;;;;;;;5116887;28;20042;-73
2022/07/05 03:04:06;;;;;;;19.02;13.30;;;;;;;;;;5117052;28;20373;-73
2022/07/05 03:06:32;;;;;;;15.98;14.15;;;;;;;;;;5116897;28;20110;-73
2022/07/05 03:08:58;;;;;;;17.33;13.38;;;;;;;;;;5116823;28;20032;-73
2022/07/05 03:11:24;;;;;;;14.23;12.73;;;;;;;;;;5115380;28;20442;-73
2022/07/05 03:13:50;;;;;;;15.18;13.68;;;;;;;;;;5116616;28;20073;-73
2022/07/05 03:16:16;;;;;;;15.90;13.60;;;;;;;;;;5116607;28;20028;-73
2022/07/05 03:18:42;;;;;;;14.27;12.77;;;;;;;;;;5116524;28;20099;-73
2022/07/05 03:21:09;;;;;;;14.45;12.95;;;;;;;;;;5116441;28;20047;-73
2022/07/05 03:23:35;;;;;;;15.93;13.63;;;;;;;;;;5116455;28;20462;-73
2022/07/05 03:26:01;;;;;;;14.27;12.88;;;;;;;;;;5116425;28;20377;-73
2022/07/05 03:28:27;;;;;;;14.20;11.90;;;;;;;;;;5116462;28;20031;-73
2022/07/05 03:30:53;;;;;;;13.70;12.40;;;;;;;;;;5116089;28;20028;-73
2022/07/05 03:33:19;;;;;;;16.00;13.00;;;;;;;;;;5116040;28;20059;-73
2022/07/05 03:35:45;;;;;;;15.15;13.35;;;;;;;;;;5116159;28;20074;-73
2022/07/05 03:38:11;;;;;;;13.65;12.35;;;;;;;;;;5116170;28;20418;-74
2022/07/05 03:40:38;;;;;;;14.57;13.07;;;;;;;;;;5116150;28;20019;-73
2022/07/05 03:43:04;;;;;;;16.38;13.68;;;;;;;;;;5116049;28;20024;-73
2022/07/05 03:45:30;;;;;;;14.10;12.48;;;;;;;;;;5115988;28;20362;-73
2022/07/05 03:47:59;;;;;;;16.90;12.65;;;;;;;;;;5115929;28;20024;-73
2022/07/05 03:50:25;;;;;;;15.77;14.15;;;;;;;;;;5115918;28;20046;-73
2022/07/05 03:52:52;;;;;;;15.23;13.40;;;;;;;;;;5115860;28;20474;-73
2022/07/05 03:55:18;;;;;;;14.32;12.80;;;;;;;;;;5115748;28;20034;-73
2022/07/05 03:57:44;;;;;;;17.77;13.32;;;;;;;;;;5115639;28;20041;-73
2022/07/05 04:00:10;;;;;;;14.77;12.65;;;;;;;;;;5115905;28;20020;-73
2022/07/05 04:02:36;;;;;;;17.15;12.55;;;;;;;;;;5116101;28;20024;-73
2022/07/05 04:05:02;;;;;;;13.77;12.38;;;;;;;;;;5113961;28;20082;-73
2022/07/05 04:07:28;;;;;;;15.43;13.00;;;;;;;;;;5115669;28;20090;-73
2022/07/05 04:09:54;;;;;;;14.55;13.02;;;;;;;;;;5115350;28;20052;-73
2022/07/05 04:12:21;;;;;;;16.17;13.02;;;;;;;;;;5115482;28;20462;-73
2022/07/05 04:14:47;;;;;;;15.38;13.23;;;;;;;;;;5115416;28;20380;-74
2022/07/05 04:17:13;;;;;;;14.15;12.73;;;;;;;;;;5115508;28;20442;-74
2022/07/05 04:19:39;;;;;;;14.25;12.75;;;;;;;;;;5115383;28;20039;-73
2022/07/05 04:22:05;;;;;;;14.13;12.65;;;;;;;;;;5115447;28;20023;-73
2022/07/05 04:24:31;;;;;;;16.73;13.65;;;;;;;;;;5115334;28;20044;-73
2022/07/05 04:26:57;;;;;;;14.88;12.85;;;;;;;;;;5115101;28;20022;-73
2022/07/05 04:29:23;;;;;;;17.45;14.02;;;;;;;;;;5115011;28;20036;-73
2022/07/05 04:31:49;;;;;;;14.68;13.10;;;;;;;;;;5114528;28;20062;-73
2022/07/05 04:34:15;;;;;;;15.57;13.02;;;;;;;;;;5115174;28;20100;-73
2022/07/05 04:36:41;;;;;;;15.43;13.20;;;;;;;;;;5114783;28;20054;-72
2022/07/05 04:39:08;;;;;;;14.80;13.13;;;;;;;;;;5115070;28;20418;-73
2022/07/05 04:41:34;;;;;;;14.32;12.82;;;;;;;;;;5114870;28;20571;-73
2022/07/05 04:44:00;;;;;;;15.50;13.27;;;;;;;;;;5115071;28;20401;-73
2022/07/05 04:46:26;;;;;;;16.38;13.88;;;;;;;;;;5114704;28;20456;-72
2022/07/05 04:48:52;;;;;;;20.85;14.48;;;;;;;;;;5114692;28;20027;-73
2022/07/05 04:51:21;;;;;;;17.63;13.15;;;;;;;;;;5114765;28;20515;-72
2022/07/05 04:53:47;;;;;;;19.27;13.63;;;;;;;;;;5114601;28;20023;-73
2022/07/05 04:56:13;;;;;;;18.40;13.52;;;;;;;;;;5114721;28;20434;-72
2022/07/05 04:58:40;;;;;;;14.77;13.15;;;;;;;;;;5114672;28;20076;-72
2022/07/05 05:01:06;;;;;;;14.15;12.57;;;;;;;;;;5114566;28;20469;-73
2022/07/05 05:03:32;;;;;;;14.18;12.68;;;;;;;;;;5114371;28;20035;-73
2022/07/05 05:05:58;;;;;;;13.43;11.88;;;;;;;;;;5114568;28;20526;-72
2022/07/05 05:08:24;;;;;;;16.25;13.73;;;;;;;;;;5114346;28;20110;-72
2022/07/05 05:10:50;;;;;;;15.38;13.20;;;;;;;;;;5114254;28;20074;-73
2022/07/05 05:13:16;;;;;;;16.00;13.38;;;;;;;;;;5114238;28;20023;-72
2022/07/05 05:15:42;;;;;;;15.55;13.07;;;;;;;;;;5114092;28;20076;-72
2022/07/05 05:18:08;;;;;;;14.77;13.30;;;;;;;;;;5114183;28;20023;-72
2022/07/05 05:20:34;;;;;;;18.23;13.38;;;;;;;;;;5114292;28;20051;-72
2022/07/05 05:23:00;;;;;;;15.15;12.75;;;;;;;;;;5114219;28;20047;-72
2022/07/05 05:25:29;;;;;;;14.30;12.80;;;;;;;;;;5114099;28;20378;-72
2022/07/05 05:27:55;;;;;;;15.00;13.38;;;;;;;;;;5113940;28;20076;-73
2022/07/05 05:30:21;;;;;;;16.08;12.88;;;;;;;;;;5113802;28;20051;-72
2022/07/05 05:32:47;;;;;;;16.88;13.13;;;;;;;;;;5111885;28;20116;-72
2022/07/05 05:35:13;;;;;;;15.35;13.30;;;;;;;;;;5113771;28;20088;-72
2022/07/05 05:37:49;;;;;;;14.90;13.40;;;;;;;;;;5113747;28;20114;-72
2022/07/05 05:40:16;;;;;;;15.73;12.88;;;;;;;;;;5113709;28;20431;-72
2022/07/05 05:42:42;;;;;;;14.38;13.00;;;;;;;;;;5113326;28;20053;-72
2022/07/05 05:45:08;;;;;;;16.33;13.82;;;;;;;;;;5113464;28;20073;-73
2022/07/05 05:47:42;;;;;;;18.77;14.05;;;;;;;;;;5113595;28;20019;-72
2022/07/05 05:50:08;;;;;;;19.52;15.07;;;;;;;;;;5113624;28;20114;-73
2022/07/05 05:52:34;;;;;;;20.35;15.85;;;;;;;;;;5113477;28;20077;-73
2022/07/05 05:55:00;;;;;;;21.35;16.90;;;;;;;;;;5113690;28;20449;-73
2022/07/05 05:57:26;;;;;;;17.83;15.90;;;;;;;;;;5113598;28;20046;-73
2022/07/05 05:59:52;;;;;;;23.55;18.00;;;;;;;;;;5113748;28;20041;-72
2022/07/05 06:02:19;;;;;;;21.50;16.05;;;;;;;;;;5113399;28;20039;-73
2022/07/05 06:04:45;;;;;;;23.17;16.20;;;;;;;;;;5113388;28;20020;-73
2022/07/05 06:07:11;;;;;;;19.33;15.27;;;;;;;;;;5113440;28;20020;-73
2022/07/05 06:09:37;;;;;;;18.27;15.40;;;;;;;;;;5113337;28;20042;-73
2022/07/05 06:12:03;;;;;;;16.67;15.02;;;;;;;;;;5113376;28;20019;-73
2022/07/05 06:14:29;;;;;;;21.48;15.52;;;;;;;;;;5113465;28;20059;-72
2022/07/05 06:16:55;;;;;;;17.45;15.38;;;;;;;;;;5113331;28;20023;-73
2022/07/05 06:19:21;;;;;;;21.52;15.82;;;;;;;;;;5113605;28;20465;-73
2022/07/05 06:21:47;;;;;;;22.95;17.10;;;;;;;;;;5113331;28;20421;-73
2022/07/05 06:24:16;;;;;;;23.55;19.33;;;;;;;;;;5112997;28;20500;-72
2022/07/05 06:26:42;;;;;;;28.73;19.85;;;;;;;;;;5113729;28;20477;-73
2022/07/05 06:29:08;;;;;;;24.70;19.55;;;;;;;;;;5113473;28;20067;-73
2022/07/05 06:31:34;;;;;;;19.55;16.65;;;;;;;;;;5112895;28;20024;-73
2022/07/05 06:34:00;;;;;;;20.63;17.10;;;;;;;;;;5112958;28;20054;-73
2022/07/05 06:36:26;;;;;;;17.67;14.95;;;;;;;;;;5112907;28;20081;-73
2022/07/05 06:38:53;;;;;;;19.88;16.42;;;;;;;;;;5111739;28;20512;-73
2022/07/05 06:41:19;;;;;;;23.48;16.50;;;;;;;;;;5113041;28;20020;-73
2022/07/05 06:43:45;;;;;;;22.60;16.70;;;;;;;;;;5113065;28;20103;-73
2022/07/05 06:46:11;;;;;;;24.52;16.63;;;;;;;;;;5112975;28;20016;-73
2022/07/05 06:48:37;;;;;;;26.40;16.48;;;;;;;;;;5112971;28;20019;-73
2022/07/05 06:51:03;;;;;;;23.67;17.08;;;;;;;;;;5112939;28;20482;-73
2022/07/05 06:53:29;;;;;;;24.85;17.25;;;;;;;;;;5112881;28;20142;-74
2022/07/05 06:55:55;;;;;;;22.13;15.30;;;;;;;;;;5115832;28;20019;-73
2022/07/05 06:58:21;;;;;;;26.63;17.80;;;;;;;;;;5115144;28;20417;-73
2022/07/05 07:00:47;;;;;;;17.52;13.68;;;;;;;;;;5116613;28;20533;-73
2022/07/05 07:03:13;;;;;;;29.88;19.95;;;;;;;;;;5116818;28;20039;-73
2022/07/05 07:05:39;;;;;;;22.80;17.33;;;;;;;;;;5116800;28;20022;-72
2022/07/05 07:10:50;;;;;;;21.80;17.15;;;;;;;;;;5116470;28;20078;-72
2022/07/05 07:13:16;;;;;;;28.00;17.27;;;;;;;;;;5116485;28;20051;-73
2022/07/05 07:15:42;;;;;;;22.08;16.33;;;;;;;;;;5116355;28;20023;-74
2022/07/05 07:18:08;;;;;;;19.77;16.02;;;;;;;;;;5116389;28;20027;-73
2022/07/05 07:20:34;;;;;;;24.50;16.25;;;;;;;;;;5116505;28;20096;-73
2022/07/05 07:23:00;;;;;;;17.55;14.57;;;;;;;;;;5116264;28;20072;-73
2022/07/05 07:25:26;;;;;;;18.88;16.52;;;;;;;;;;5116181;28;20585;-73
2022/07/05 07:27:53;;;;;;;28.23;14.45;;;;;;;;;;5116334;28;20386;-73
2022/07/05 07:30:21;;;;;;;18.00;15.73;;;;;;;;;;5116250;28;20465;-73
2022/07/05 07:32:47;;;;;;;25.00;17.65;;;;;;;;;;5115656;28;20043;-73
2022/07/05 07:35:13;;;;;;;23.75;17.92;;;;;;;;;;5116055;28;20111;-74
2022/07/05 07:37:39;;;;;;;28.10;18.63;;;;;;;;;;5116000;28;20447;-73
2022/07/05 07:40:06;;;;;;;19.38;15.25;;;;;;;;;;5115983;28;20378;-73
2022/07/05 07:42:32;;;;;;;16.77;15.05;;;;;;;;;;5115794;28;20090;-73
2022/07/05 07:45:03;;;;;;;22.23;14.90;;;;;;;;;;5115881;28;20053;-73
2022/07/05 07:47:29;;;;;;;24.63;19.52;;;;;;;;;;5116009;28;20023;-72
2022/07/05 07:49:55;;;;;;;19.10;16.00;;;;;;;;;;5114015;28;20487;-73
2022/07/05 07:52:21;;;;;;;21.17;16.55;;;;;;;;;;5115813;28;20454;-73
2022/07/05 07:54:47;;;;;;;19.60;14.52;;;;;;;;;;5115664;28;20393;-73
2022/07/05 07:57:13;;;;;;;24.60;18.02;;;;;;;;;;5115703;28;20153;-73
2022/07/05 07:59:39;;;;;;;17.38;15.45;;;;;;;;;;5115656;28;20027;-72
2022/07/05 08:02:05;;;;;;;17.20;15.20;;;;;;;;;;5115609;28;20419;-73
2022/07/05 08:04:31;;;;;;;24.10;15.68;;;;;;;;;;5115512;28;20030;-73
2022/07/05 08:06:57;;;;;;;19.35;16.08;;;;;;;;;;5114736;28;20076;-73
2022/07/05 08:09:24;;;;;;;18.75;16.08;;;;;;;;;;5115371;28;20040;-73
2022/07/05 08:11:50;;;;;;;22.80;16.95;;;;;;;;;;5115650;28;20416;-73
2022/07/05 08:14:16;;;;;;;17.80;16.10;;;;;;;;;;5115500;28;20110;-73
2022/07/05 08:16:43;;;;;;;19.77;16.58;;;;;;;;;;5115164;28;20580;-73
2022/07/05 08:21:53;;;;;;;17.88;15.95;;;;;;;;;;5115237;28;20035;-74
2022/07/05 08:24:19;;;;;;;20.08;17.23;;;;;;;;;;5115140;28;20024;-73
2022/07/05 08:26:45;;;;;;;19.30;16.02;;;;;;;;;;5114944;28;20028;-73
2022/07/05 08:29:12;;;;;;;18.92;16.80;;;;;;;;;;5114865;28;20028;-73
2022/07/05 08:31:39;;;;;;;20.23;16.48;;;;;;;;;;5114607;28;20366;-74
2022/07/05 08:34:05;;;;;;;18.65;16.85;;;;;;;;;;5114772;28;20097;-74
2022/07/05 08:36:31;;;;;;;19.90;17.02;;;;;;;;;;5114913;28;20470;-74
2022/07/05 08:38:57;;;;;;;18.77;16.10;;;;;;;;;;5114689;28;20034;-72
2022/07/05 08:41:24;;;;;;;18.48;16.00;;;;;;;;;;5114790;28;20028;-74
2022/07/05 08:43:51;;;;;;;21.63;17.42;;;;;;;;;;5114443;28;20058;-73
2022/07/05 08:46:18;;;;;;;21.08;16.50;;;;;;;;;;5114551;28;20012;-74
2022/07/05 08:48:48;;;;;;;21.83;16.48;;;;;;;;;;5114420;28;20034;-73
2022/07/05 08:51:16;;;;;;;18.10;16.23;;;;;;;;;;5112816;28;20067;-73
2022/07/05 08:53:43;;;;;;;19.38;15.65;;;;;;;;;;5114629;28;20034;-73
2022/07/05 08:56:10;;;;;;;19.98;16.65;;;;;;;;;;5114673;28;20030;-72
2022/07/05 08:58:36;;;;;;;17.85;15.98;;;;;;;;;;5114312;28;20473;-73
2022/07/05 09:01:02;;;;;;;18.55;16.75;;;;;;;;;;5114404;28;20019;-74
2022/07/05 09:03:32;;;;;;;17.80;15.98;;;;;;;;;;5114669;28;20503;-74
2022/07/05 09:05:59;;;;;;;19.52;17.48;;;;;;;;;;5114336;28;20134;-74
2022/07/05 09:08:32;;;;;;;20.00;17.20;;;;;;;;;;5114209;28;20019;-74
2022/07/05 09:11:00;;;;;;;19.35;17.25;;;;;;;;;;5114125;28;20035;-73
2022/07/05 09:13:26;;;;;;;18.05;16.30;;;;;;;;;;5114206;28;20051;-75
2022/07/05 09:15:54;;;;;;;24.00;16.58;;;;;;;;;;5113943;28;20023;-74
2022/07/05 09:18:39;;;;;;;23.25;17.48;;;;;;;;;;5114044;28;20020;-74
2022/07/05 09:21:13;;;;;;;17.80;16.23;;;;;;;;;;5113940;28;20039;-73
2022/07/05 09:23:40;;;;;;;18.00;16.10;;;;;;;;;;5114141;28;20019;-74
2022/07/05 09:26:06;;;;;;;23.90;16.95;;;;;;;;;;5114082;28;20034;-74
2022/07/05 09:28:32;;;;;;;19.30;17.33;;;;;;;;;;5113742;28;20020;-74
2022/07/05 09:30:58;;;;;;;18.90;16.20;;;;;;;;;;5113605;28;20039;-74
2022/07/05 09:33:24;;;;;;;18.80;16.70;;;;;;;;;;5113176;28;20050;-75
2022/07/05 09:35:57;;;;;;;19.63;17.63;;;;;;;;;;5113724;28;20077;-74
2022/07/05 09:38:24;;;;;;;18.13;16.15;;;;;;;;;;5112474;28;20028;-74
2022/07/05 09:40:50;;;;;;;18.65;16.85;;;;;;;;;;5113889;28;20027;-74
2022/07/05 09:43:20;;;;;;;23.88;18.08;;;;;;;;;;5113752;28;20091;-74
2022/07/05 09:45:53;;;;;;;19.73;17.65;;;;;;;;;;5112552;28;20062;-74
2022/07/05 09:48:19;;;;;;;19.35;17.45;;;;;;;;;;5113456;28;20097;-73
2022/07/05 09:50:45;;;;;;;18.77;17.02;;;;;;;;;;5112636;28;20039;-74
2022/07/05 09:53:11;;;;;;;19.08;17.17;;;;;;;;;;5113769;28;20030;-73
2022/07/05 09:55:38;;;;;;;20.95;17.17;;;;;;;;;;5113368;28;20024;-74
2022/07/05 09:58:04;;;;;;;19.50;17.60;;;;;;;;;;5113437;28;20023;-74
2022/07/05 10:00:30;;;;;;;19.08;17.00;;;;;;;;;;5113448;28;20485;-74
2022/07/05 10:03:03;;;;;;;18.33;16.23;;;;;;;;;;5113570;28;20024;-75
2022/07/05 10:05:30;;;;;;;19.77;17.85;;;;;;;;;;5113554;28;20026;-74
2022/07/05 10:07:57;;;;;;;22.35;16.95;;;;;;;;;;5113599;28;20350;-73
2022/07/05 10:10:28;;;;;;;19.08;17.38;;;;;;;;;;5113218;28;20485;-74
2022/07/05 10:12:55;;;;;;;18.13;16.35;;;;;;;;;;5113303;28;20027;-73
2022/07/05 10:15:23;;;;;;;19.17;16.75;;;;;;;;;;5113163;28;20431;-74
2022/07/05 10:17:52;;;;;;;19.20;17.27;;;;;;;;;;5111564;28;20469;-74
2022/07/05 10:20:20;;;;;;;19.25;17.08;;;;;;;;;;5113393;28;20032;-74
2022/07/05 10:22:47;;;;;;;18.42;16.63;;;;;;;;;;5113427;28;20443;-74
2022/07/05 10:25:14;;;;;;;18.23;16.55;;;;;;;;;;5113314;28;20028;-74
2022/07/05 10:27:40;;;;;;;18.60;16.17;;;;;;;;;;5113171;28;20023;-74
2022/07/05 10:30:07;;;;;;;18.42;16.58;;;;;;;;;;5114833;28;20358;-74
2022/07/05 10:32:34;;;;;;;19.77;16.83;;;;;;;;;;5117096;28;20048;-74
2022/07/05 10:35:03;;;;;;;18.63;16.65;;;;;;;;;;5117334;28;20041;-74
2022/07/05 10:37:30;;;;;;;22.30;16.52;;;;;;;;;;5117295;28;20015;-74
2022/07/05 10:39:58;;;;;;;20.95;16.92;;;;;;;;;;5117317;28;20026;-74
2022/07/05 10:42:25;;;;;;;18.40;15.80;;;;;;;;;;5117127;28;20024;-74
2022/07/05 10:44:51;;;;;;;21.27;17.05;;;;;;;;;;5117187;28;20047;-75
2022/07/05 10:47:18;;;;;;;17.48;15.77;;;;;;;;;;5117162;28;20016;-75
2022/07/05 10:49:59;;;;;;;18.48;16.40;;;;;;;;;;5116929;28;20064;-74
2022/07/05 10:52:26;;;;;;;20.95;17.25;;;;;;;;;;5116971;28;20020;-75
2022/07/05 10:55:10;;;;;;;18.63;16.73;;;;;;;;;;5117018;28;20023;-75
2022/07/05 10:57:36;;;;;;;19.42;17.35;;;;;;;;;;5116578;28;20011;-75
2022/07/05 11:00:06;;;;;;;17.90;16.00;;;;;;;;;;5116684;28;20107;-75
2022/07/05 11:02:32;;;;;;;18.40;16.50;;;;;;;;;;5116812;28;20389;-75
2022/07/05 11:04:59;;;;;;;18.95;17.05;;;;;;;;;;5116761;28;20260;-75
2022/07/05 11:07:44;;;;;;;17.23;15.65;;;;;;;;;;5116529;28;20536;-75
2022/07/05 11:10:13;;;;;;;17.83;15.85;;;;;;;;;;5116478;28;20077;-76
2022/07/05 11:12:39;;;;;;;16.77;14.98;;;;;;;;;;5116549;28;20027;-74
2022/07/05 11:15:07;;;;;;;18.08;16.25;;;;;;;;;;5116284;28;20496;-75
2022/07/05 11:17:36;;;;;;;18.15;16.35;;;;;;;;;;5116305;28;20100;-75
2022/07/05 11:20:07;;;;;;;16.27;14.68;;;;;;;;;;5116419;28;20027;-74
2022/07/05 11:22:34;;;;;;;18.25;16.60;;;;;;;;;;5115870;28;20089;-75
2022/07/05 11:25:01;;;;;;;17.55;15.60;;;;;;;;;;5116232;28;20080;-75
2022/07/05 11:27:27;;;;;;;18.77;16.98;;;;;;;;;;5116145;28;20038;-75
2022/07/05 11:29:54;;;;;;;17.60;15.82;;;;;;;;;;5116093;28;20069;-75
2022/07/05 11:32:21;;;;;;;18.00;15.80;;;;;;;;;;5115478;28;20035;-75
2022/07/05 11:34:52;;;;;;;18.70;16.83;;;;;;;;;;5116210;28;20034;-75
2022/07/05 11:37:38;;;;;;;;;;;;;;;;;;5116190;28;20028;-75
2022/07/05 11:40:10;;;;;;;18.02;13.75;;;;;;;;;;5116035;28;19908;-75
2022/07/05 11:42:42;;;;;;;15.90;13.82;;;;;;;;;;5114690;28;20483;-75
2022/07/05 11:45:08;;;;;;;17.27;15.43;;;;;;;;;;5115772;28;20020;-74
2022/07/05 11:47:35;;;;;;;20.25;16.13;;;;;;;;;;5115719;28;20027;-74
2022/07/05 11:50:01;;;;;;;19.83;14.57;;;;;;;;;;5115664;28;20031;-74
2022/07/05 11:52:27;;;;;;;19.63;13.95;;;;;;;;;;5115454;28;20076;-74
2022/07/05 11:54:54;;;;;;;20.95;14.02;;;;;;;;;;5115720;28;20023;-74
2022/07/05 11:57:20;;;;;;;17.38;13.10;;;;;;;;;;5115462;28;20077;-74
2022/07/05 11:59:47;;;;;;;15.60;11.77;;;;;;;;;;5115511;28;20100;-73
2022/07/05 12:02:14;;;;;;;17.85;15.52;;;;;;;;;;5115476;28;20100;-74
2022/07/05 12:04:40;;;;;;;21.85;14.02;;;;;;;;;;5115240;28;20389;-74
2022/07/05 12:07:06;;;;;;;16.85;15.32;;;;;;;;;;5115063;28;20027;-75
2022/07/05 12:12:43;;;;;;;18.15;16.20;;;;;;;;;;5115210;28;20083;-75
2022/07/05 12:15:10;;;;;;;15.90;14.30;;;;;;;;;;5115253;28;20015;-74
2022/07/05 12:17:37;;;;;;;21.27;15.65;;;;;;;;;;5115339;28;20028;-74
2022/07/05 12:20:03;;;;;;;17.20;15.43;;;;;;;;;;5115040;28;20019;-73
2022/07/05 12:22:30;;;;;;;20.02;14.65;;;;;;;;;;5115362;28;20102;-73
2022/07/05 12:24:58;;;;;;;15.73;14.20;;;;;;;;;;5115163;28;20081;-73
2022/07/05 12:27:25;;;;;;;17.20;12.23;;;;;;;;;;5115006;28;20030;-74
2022/07/05 12:29:55;;;;;;;14.52;10.10;;;;;;;;;;5114854;28;20038;-74
2022/07/05 12:32:24;;;;;;;16.75;12.82;;;;;;;;;;5114297;28;20032;-75
2022/07/05 12:34:50;;;;;;;18.90;15.23;;;;;;;;;;5113819;28;20027;-74
2022/07/05 12:37:22;;;;;;;18.85;12.20;;;;;;;;;;5114841;28;20023;-73
2022/07/05 12:39:49;;;;;;;12.88;10.90;;;;;;;;;;5114797;28;20020;-73
2022/07/05 12:42:51;;;;;;;14.35;10.88;;;;;;;;;;5096837;28;20405;-73
2022/07/05 12:45:18;;;;;;;12.20;9.60;;;;;;;;;;5032270;28;20053;-74
2022/07/05 12:47:57;;;;;;;18.60;11.20;;;;;;;;;;5015302;28;20037;-74
2022/07/05 12:50:24;;;;;;;14.38;12.85;;;;;;;;;;5031967;28;20038;-73
2022/07/05 12:59:05;;;;;;;20.88;14.30;;;;;;;;;;5031960;28;19912;-73
2022/07/05 13:01:36;;;;;;;13.57;12.25;;;;;;;;;;4992214;28;20043;-74
2022/07/05 13:04:18;;;;;;;16.25;11.98;;;;;;;;;;4992241;28;20100;-73
2022/07/05 13:06:50;;;;;;;14.00;8.63;;;;;;;;;;4992545;28;20090;-74
2022/07/05 13:09:17;;;;;;;14.27;10.45;;;;;;;;;;4992187;28;20408;-74
2022/07/05 13:11:44;;;;;;;22.35;10.60;;;;;;;;;;4991971;28;20031;-74
2022/07/05 13:14:10;;;;;;;12.25;9.35;;;;;;;;;;4992133;28;20045;-74
2022/07/05 13:16:36;;;;;;;14.48;10.80;;;;;;;;;;4992323;28;20472;-75
2022/07/05 13:19:09;;;;;;;13.52;9.15;;;;;;;;;;5016640;28;20036;-75
2022/07/05 13:21:35;;;;;;;12.70;10.70;;;;;;;;;;5051517;28;20033;-74
2022/07/05 13:24:01;;;;;;;11.88;9.60;;;;;;;;;;5051169;28;20035;-75
2022/07/05 13:26:28;;;;;;;11.45;9.70;;;;;;;;;;5051196;28;20496;-73
2022/07/05 13:28:54;;;;;;;12.45;10.18;;;;;;;;;;5051099;28;20028;-74
2022/07/05 13:31:21;;;;;;;12.48;10.50;;;;;;;;;;5050738;28;20053;-73
2022/07/05 13:33:47;;;;;;;16.17;10.93;;;;;;;;;;5050892;28;20437;-73
2022/07/05 13:36:13;;;;;;;11.35;10.00;;;;;;;;;;5051083;28;20040;-73
2022/07/05 13:38:39;;;;;;;12.60;10.15;;;;;;;;;;5102415;28;20075;-73
2022/07/05 13:41:09;;;;;;;15.13;10.80;;;;;;;;;;5113782;28;20019;-74
2022/07/05 13:43:35;;;;;;;13.52;12.23;;;;;;;;;;5113541;28;20042;-73
2022/07/05 13:46:01;;;;;;;20.25;11.35;;;;;;;;;;5113854;28;20020;-73
2022/07/05 13:48:27;;;;;;;37.05;22.70;;;;;;;;;;5113602;28;20054;-72
2022/07/05 13:50:53;;;;;;;17.30;12.98;;;;;;;;;;5113658;28;20032;-73
2022/07/05 13:53:20;;;;;;;15.02;11.25;;;;;;;;;;5111875;28;20030;-72
2022/07/05 13:55:46;;;;;;;14.77;11.98;;;;;;;;;;5113318;28;20031;-73
2022/07/05 13:58:12;;;;;;;13.80;10.93;;;;;;;;;;5113378;28;20461;-73
2022/07/05 14:00:38;;;;;;;23.55;13.07;;;;;;;;;;5113428;28;20028;-73
2022/07/05 14:03:04;;;;;;;12.50;11.25;;;;;;;;;;5111772;28;20053;-73
2022/07/05 14:05:30;;;;;;;18.27;14.63;;;;;;;;;;5112618;28;20043;-73
2022/07/05 14:07:56;;;;;;;58.97;13.93;;;;;;;;;;5113196;28;20023;-73
2022/07/05 14:10:22;;;;;;;13.77;11.57;;;;;;;;;;5113248;28;20123;-74
2022/07/05 14:12:48;;;;;;;29.90;11.57;;;;;;;;;;5113098;28;20027;-73
2022/07/05 14:15:14;;;;;;;17.30;10.23;;;;;;;;;;5111649;28;20042;-73
2022/07/05 14:17:40;;;;;;;14.70;10.68;;;;;;;;;;5113478;28;20027;-73
2022/07/05 14:20:07;;;;;;;12.05;9.82;;;;;;;;;;5113222;28;20024;-74
2022/07/05 14:22:33;;;;;;;13.95;9.15;;;;;;;;;;5113413;28;20358;-73
2022/07/05 14:24:59;;;;;;;9.57;8.48;;;;;;;;;;5113299;28;20030;-73
2022/07/05 14:27:25;;;;;;;12.80;8.13;;;;;;;;;;5113348;28;20116;-72
2022/07/05 14:29:51;;;;;;;10.05;6.47;;;;;;;;;;5113167;28;20032;-72
2022/07/05 14:32:17;;;;;;;11.13;6.97;;;;;;;;;;5112874;28;20112;-72